Time;durP1;ratioP1;P1;durP2;ratioP2;P2;SDS_P1;SDS_P2;PMS_P1;PMS_P2;Temp;Humidity;BMP_temperature;BMP_pressure;BME280_temperature;BME280_humidity;BME280_pressure;Samples;Min_cycle;Max_cycle;Signal;HPM_P1;HPM_P2
2023/07/19 00:00:55;;;;;;;8.15;7.00;;;716.80;2432.00;;;;;;5035341;28;20030;-71
2023/07/19 00:03:21;;;;;;;10.50;6.40;;;692.10;2432.00;;;;;;5035034;28;20030;-69
2023/07/19 00:05:48;;;;;;;9.98;7.32;;;716.80;2432.00;;;;;;5034768;28;20036;-70
2023/07/19 00:08:14;;;;;;;8.43;6.57;;;716.80;2432.00;;;;;;5034687;28;20022;-68
2023/07/19 00:10:40;;;;;;;12.70;7.07;;;716.90;2432.00;;;;;;5035490;28;20030;-69
2023/07/19 00:13:06;;;;;;;12.27;7.05;;;716.90;2432.00;;;;;;5034478;28;20040;-73
2023/07/19 00:15:31;;;;;;;8.88;7.05;;;716.80;2432.00;;;;;;5034475;28;20037;-70
2023/07/19 00:17:57;;;;;;;9.00;6.18;;;716.80;2432.00;;;;;;5034968;28;20075;-70
2023/07/19 00:20:23;;;;;;;12.43;7.57;;;716.80;2432.00;;;;;;5034554;28;20155;-71
2023/07/19 00:22:49;;;;;;;9.77;6.80;;;716.90;2432.00;;;;;;5035259;28;20026;-74
2023/07/19 00:25:14;;;;;;;11.35;6.60;;;717.10;2432.00;;;;;;5034468;28;20060;-73
2023/07/19 00:27:40;;;;;;;8.90;7.35;;;716.90;2432.00;;;;;;5034423;28;20105;-70
2023/07/19 00:30:06;;;;;;;8.93;7.13;;;716.90;2432.00;;;;;;5034201;28;20037;-73
2023/07/19 00:32:32;;;;;;;13.52;8.43;;;716.80;2432.00;;;;;;5034332;28;20443;-68
2023/07/19 00:34:58;;;;;;;10.35;7.30;;;692.10;2432.00;;;;;;5034551;28;20116;-70
2023/07/19 00:37:23;;;;;;;10.43;7.30;;;691.90;2432.00;;;;;;5034425;28;20080;-71
2023/07/19 00:39:49;;;;;;;13.10;7.68;;;691.80;2432.00;;;;;;5034838;28;20041;-72
2023/07/19 00:42:15;;;;;;;9.23;6.68;;;691.70;2432.00;;;;;;5034069;28;20478;-70
2023/07/19 00:44:41;;;;;;;11.18;7.03;;;691.60;2432.00;;;;;;5034123;28;20055;-70
2023/07/19 00:47:07;;;;;;;10.52;7.72;;;691.60;2432.00;;;;;;5034254;28;20022;-71
2023/07/19 00:49:32;;;;;;;10.15;8.10;;;691.50;2432.00;;;;;;5034205;28;20102;-69
2023/07/19 00:52:02;;;;;;;11.00;8.02;;;691.40;2432.00;;;;;;5034026;28;20057;-74
2023/07/19 00:54:28;;;;;;;12.10;8.07;;;666.50;2432.00;;;;;;5034514;28;20460;-70
2023/07/19 00:56:55;;;;;;;12.50;8.43;;;691.20;2432.00;;;;;;5016147;28;20076;-69
2023/07/19 00:59:22;;;;;;;11.48;8.35;;;691.20;2432.00;;;;;;5033856;28;20026;-70
2023/07/19 01:01:50;;;;;;;11.20;8.02;;;666.50;2432.00;;;;;;5033929;28;20112;-70
2023/07/19 01:04:16;;;;;;;11.05;7.57;;;691.20;2432.00;;;;;;5025092;28;20104;-68
2023/07/19 01:06:43;;;;;;;10.27;8.38;;;666.50;2432.00;;;;;;5033757;28;20037;-72
2023/07/19 01:09:13;;;;;;;13.27;7.35;;;691.20;2432.00;;;;;;5034162;28;20356;-70
2023/07/19 01:11:40;;;;;;;10.73;7.15;;;691.30;2432.00;;;;;;5033641;28;20029;-70
2023/07/19 01:14:05;;;;;;;10.70;8.05;;;691.40;2432.00;;;;;;5033197;28;20376;-71
2023/07/19 01:16:31;;;;;;;15.35;7.22;;;691.40;2432.00;;;;;;5033531;28;20055;-68
2023/07/19 01:18:57;;;;;;;14.15;8.38;;;691.50;2432.00;;;;;;5032858;28;20104;-69
2023/07/19 01:21:23;;;;;;;15.68;8.15;;;691.70;2432.00;;;;;;5033935;28;20037;-68
2023/07/19 01:23:50;;;;;;;14.40;7.63;;;691.70;2432.00;;;;;;5033183;28;20487;-69
2023/07/19 01:26:16;;;;;;;9.07;7.20;;;691.70;2432.00;;;;;;5033302;28;20021;-69
2023/07/19 01:28:42;;;;;;;17.30;8.25;;;691.70;2432.00;;;;;;5033617;28;20544;-72
2023/07/19 01:31:10;;;;;;;13.30;7.30;;;691.70;2432.00;;;;;;5033621;28;20111;-70
2023/07/19 01:33:36;;;;;;;10.23;7.88;;;691.70;2432.00;;;;;;5033740;28;20032;-72
2023/07/19 01:36:02;;;;;;;11.88;7.75;;;691.70;2432.00;;;;;;4998628;28;20034;-70
2023/07/19 01:38:27;;;;;;;9.52;7.53;;;691.70;2432.00;;;;;;5033248;28;20467;-70
2023/07/19 01:40:53;;;;;;;13.68;8.18;;;691.70;2432.00;;;;;;5032854;28;20038;-68
2023/07/19 01:43:19;;;;;;;12.75;8.05;;;691.70;2432.00;;;;;;5033451;28;20112;-69
2023/07/19 01:45:45;;;;;;;12.30;8.35;;;691.40;2432.00;;;;;;5033038;28;20041;-69
2023/07/19 01:48:11;;;;;;;11.57;8.43;;;691.40;2432.00;;;;;;5033099;28;20029;-68
2023/07/19 01:50:36;;;;;;;15.02;8.00;;;691.40;2432.00;;;;;;5032979;28;20045;-71
2023/07/19 01:53:02;;;;;;;10.60;7.82;;;691.50;2432.00;;;;;;5032978;28;20392;-70
2023/07/19 01:55:28;;;;;;;11.77;7.15;;;691.60;2432.00;;;;;;5033091;28;20037;-70
2023/07/19 01:57:54;;;;;;;15.30;7.82;;;691.60;2432.00;;;;;;5033103;28;20018;-70
2023/07/19 02:00:19;;;;;;;9.93;7.07;;;691.70;2432.00;;;;;;5032706;28;20033;-68
2023/07/19 02:02:45;;;;;;;12.85;8.07;;;691.80;2432.00;;;;;;5032810;28;20036;-72
2023/07/19 02:05:11;;;;;;;11.57;8.27;;;691.80;2432.00;;;;;;5032815;28;20032;-69
2023/07/19 02:07:37;;;;;;;13.65;7.57;;;691.80;2432.00;;;;;;5032697;28;20021;-70
2023/07/19 02:10:04;;;;;;;14.70;7.85;;;692.00;2432.00;;;;;;5032932;28;20104;-70
2023/07/19 02:12:29;;;;;;;13.85;8.38;;;692.10;2432.00;;;;;;5015321;28;20038;-69
2023/07/19 02:14:55;;;;;;;10.68;7.72;;;692.10;2432.00;;;;;;5033245;28;20056;-68
2023/07/19 02:17:21;;;;;;;13.73;7.97;;;692.10;2432.00;;;;;;5033275;28;20025;-71
2023/07/19 02:19:47;;;;;;;11.95;7.75;;;692.10;2432.00;;;;;;5015657;28;20030;-70
2023/07/19 02:22:15;;;;;;;15.02;8.60;;;692.10;2432.00;;;;;;5015199;28;20056;-69
2023/07/19 02:24:41;;;;;;;11.65;8.48;;;716.80;2432.00;;;;;;5015550;28;20084;-71
2023/07/19 02:27:07;;;;;;;12.30;7.85;;;716.80;2432.00;;;;;;5033162;28;20013;-72
2023/07/19 02:29:32;;;;;;;11.63;8.10;;;716.80;2432.00;;;;;;5031522;28;20034;-70
2023/07/19 02:31:58;;;;;;;15.00;8.73;;;716.80;2432.00;;;;;;5032908;28;20029;-72
2023/07/19 02:34:24;;;;;;;13.60;8.63;;;716.80;2432.00;;;;;;5033177;28;20038;-71
2023/07/19 02:36:50;;;;;;;12.88;8.13;;;716.80;2432.00;;;;;;5033544;28;20371;-70
2023/07/19 02:39:16;;;;;;;13.48;8.23;;;692.10;2432.00;;;;;;5032564;28;20028;-71
2023/07/19 02:41:42;;;;;;;13.57;8.50;;;716.80;2432.00;;;;;;5033256;28;20026;-70
2023/07/19 02:44:08;;;;;;;14.50;8.48;;;716.80;2432.00;;;;;;5032398;28;20025;-70
2023/07/19 02:46:33;;;;;;;10.52;8.40;;;716.80;2432.00;;;;;;5033002;28;20453;-69
2023/07/19 02:48:59;;;;;;;12.90;8.68;;;716.80;2432.00;;;;;;5033063;28;20521;-73
2023/07/19 02:51:25;;;;;;;13.25;8.23;;;692.10;2432.00;;;;;;5033026;28;20022;-70
2023/07/19 02:53:50;;;;;;;14.50;8.48;;;692.10;2432.00;;;;;;5032887;28;20076;-78
2023/07/19 02:56:16;;;;;;;17.83;9.02;;;692.10;2432.00;;;;;;5032889;28;20036;-69
2023/07/19 02:58:42;;;;;;;11.82;8.50;;;692.10;2432.00;;;;;;5032710;28;20498;-70
2023/07/19 03:01:08;;;;;;;15.93;8.65;;;692.10;2432.00;;;;;;5024158;28;20036;-70
2023/07/19 03:03:33;;;;;;;10.70;8.45;;;692.10;2432.00;;;;;;5013289;28;20030;-71
2023/07/19 03:06:01;;;;;;;14.60;8.55;;;692.00;2432.00;;;;;;5014704;28;20477;-74
2023/07/19 03:08:27;;;;;;;14.25;9.15;;;692.00;2432.00;;;;;;5032653;28;20033;-70
2023/07/19 03:10:53;;;;;;;14.00;8.77;;;692.00;2432.00;;;;;;5032412;28;20117;-70
2023/07/19 03:13:19;;;;;;;12.60;9.07;;;692.00;2432.00;;;;;;5032355;28;20042;-70
2023/07/19 03:15:46;;;;;;;16.70;8.50;;;691.90;2432.00;;;;;;5015009;28;20041;-72
2023/07/19 03:18:12;;;;;;;13.48;9.43;;;691.80;2432.00;;;;;;5032589;28;20021;-80
2023/07/19 03:20:38;;;;;;;14.13;8.52;;;691.80;2432.00;;;;;;5032435;28;20029;-71
2023/07/19 03:23:04;;;;;;;13.43;8.98;;;691.80;2432.00;;;;;;5032627;28;20025;-70
2023/07/19 03:25:29;;;;;;;16.42;9.18;;;691.80;2432.00;;;;;;5032436;28;20021;-72
2023/07/19 03:27:55;;;;;;;12.35;8.45;;;691.80;2432.00;;;;;;5032410;28;20520;-70
2023/07/19 03:30:21;;;;;;;14.25;8.57;;;691.80;2432.00;;;;;;5032479;28;20033;-70
2023/07/19 03:32:48;;;;;;;10.75;7.82;;;691.80;2432.00;;;;;;5032202;28;20537;-71
2023/07/19 03:35:13;;;;;;;14.02;8.35;;;691.80;2432.00;;;;;;5032593;28;20025;-70
2023/07/19 03:37:44;;;;;;;11.10;7.97;;;691.80;2432.00;;;;;;5032356;28;20024;-70
2023/07/19 03:40:11;;;;;;;12.63;8.02;;;691.80;2432.00;;;;;;5014623;28;20034;-68
2023/07/19 03:42:36;;;;;;;14.95;8.23;;;691.80;2432.00;;;;;;5031979;28;20557;-69
2023/07/19 03:45:03;;;;;;;10.32;7.47;;;691.80;2432.00;;;;;;5025856;28;20033;-71
2023/07/19 03:47:29;;;;;;;15.48;7.45;;;691.70;2432.00;;;;;;5035982;28;20018;-70
2023/07/19 03:49:54;;;;;;;17.13;8.93;;;691.60;2432.00;;;;;;5036078;28;20095;-70
2023/07/19 03:52:20;;;;;;;16.25;8.68;;;691.60;2432.00;;;;;;5035940;28;20033;-70
2023/07/19 03:54:46;;;;;;;13.45;8.60;;;691.60;2432.00;;;;;;5035854;28;20479;-71
2023/07/19 03:57:11;;;;;;;13.70;8.77;;;691.60;2432.00;;;;;;5035641;28;20051;-70
2023/07/19 03:59:37;;;;;;;17.65;9.27;;;691.50;2432.00;;;;;;5041264;28;20048;-71
2023/07/19 04:02:03;;;;;;;14.73;8.18;;;691.60;2432.00;;;;;;5035546;28;20029;-71
2023/07/19 04:04:29;;;;;;;16.85;7.88;;;691.50;2432.00;;;;;;5035729;28;20022;-71
2023/07/19 04:06:55;;;;;;;17.45;7.95;;;691.50;2432.00;;;;;;5035839;28;20101;-70
2023/07/19 04:09:21;;;;;;;16.90;8.05;;;691.50;2432.00;;;;;;5035781;28;20525;-72
2023/07/19 04:11:46;;;;;;;10.50;7.72;;;691.60;2432.00;;;;;;5035490;28;20037;-77
2023/07/19 04:14:12;;;;;;;11.85;8.35;;;691.60;2432.00;;;;;;5014232;28;20045;-69
2023/07/19 04:16:38;;;;;;;24.20;9.50;;;691.50;2432.00;;;;;;5015837;28;20042;-70
2023/07/19 04:19:03;;;;;;;16.02;8.07;;;691.60;2432.00;;;;;;5015799;28;20022;-73
2023/07/19 04:21:29;;;;;;;16.67;9.45;;;691.60;2432.00;;;;;;5015423;28;20514;-70
2023/07/19 04:23:55;;;;;;;15.77;8.32;;;691.60;2432.00;;;;;;5015815;28;20021;-69
2023/07/19 04:26:21;;;;;;;14.20;7.97;;;691.60;2432.00;;;;;;5015171;28;20036;-69
2023/07/19 04:28:47;;;;;;;10.88;8.35;;;691.70;2432.00;;;;;;5015558;28;20022;-69
2023/07/19 04:31:13;;;;;;;13.20;7.35;;;691.80;2432.00;;;;;;5015390;28;20514;-69
2023/07/19 04:33:39;;;;;;;14.90;7.07;;;691.80;2432.00;;;;;;5015420;28;20030;-69
2023/07/19 04:36:15;;;;;;;12.57;5.65;;;691.80;2432.00;;;;;;5013484;28;20554;-70
2023/07/19 04:38:41;;;;;;;11.45;6.65;;;691.80;2432.00;;;;;;5015444;28;20111;-70
2023/07/19 04:41:07;;;;;;;18.58;6.82;;;691.80;2432.00;;;;;;5015201;28;20029;-70
2023/07/19 04:43:33;;;;;;;11.60;5.68;;;691.80;2432.00;;;;;;5015318;28;20022;-69
2023/07/19 04:45:59;;;;;;;16.60;5.93;;;691.90;2432.00;;;;;;5002337;28;20388;-71
2023/07/19 04:48:24;;;;;;;15.35;5.80;;;691.90;2432.00;;;;;;5015032;28;20033;-70
2023/07/19 04:50:56;;;;;;;10.45;5.25;;;691.80;2432.00;;;;;;5002148;28;20033;-70
2023/07/19 04:53:24;;;;;;;8.15;5.55;;;691.80;2432.00;;;;;;5014165;28;20022;-71
2023/07/19 04:55:51;;;;;;;13.23;6.25;;;691.80;2432.00;;;;;;5014914;28;20088;-70
2023/07/19 04:58:18;;;;;;;9.23;5.10;;;691.90;2432.00;;;;;;5013658;28;20030;-68
2023/07/19 05:00:44;;;;;;;10.10;5.63;;;691.90;2432.00;;;;;;5014621;28;20042;-70
2023/07/19 05:03:10;;;;;;;8.30;5.63;;;691.90;2432.00;;;;;;5014955;28;20026;-70
2023/07/19 05:05:37;;;;;;;11.45;5.72;;;691.90;2432.00;;;;;;5014818;28;20029;-69
2023/07/19 05:08:04;;;;;;;9.10;5.07;;;691.90;2432.00;;;;;;5014766;28;20022;-70
2023/07/19 05:10:30;;;;;;;15.25;5.18;;;692.00;2432.00;;;;;;5012111;28;20097;-76
2023/07/19 05:12:56;;;;;;;13.18;6.25;;;692.10;2432.00;;;;;;5014326;28;20427;-71
2023/07/19 05:15:21;;;;;;;12.70;5.13;;;692.10;2432.00;;;;;;5029303;28;20046;-68
2023/07/19 05:17:47;;;;;;;8.60;5.38;;;692.10;2432.00;;;;;;5033887;28;20029;-74
2023/07/19 05:20:13;;;;;;;14.63;5.30;;;692.10;2432.00;;;;;;5033740;28;20470;-70
2023/07/19 05:22:38;;;;;;;11.10;4.32;;;716.80;2432.00;;;;;;5033436;28;20022;-72
2023/07/19 05:25:04;;;;;;;8.32;4.47;;;716.80;2432.00;;;;;;5033404;28;20035;-70
2023/07/19 05:27:30;;;;;;;9.00;5.60;;;717.00;2432.00;;;;;;5033019;28;20352;-68
2023/07/19 05:29:56;;;;;;;7.97;4.45;;;717.10;2432.00;;;;;;5033219;28;20087;-69
2023/07/19 05:32:22;;;;;;;7.80;5.10;;;717.10;2432.00;;;;;;5033401;28;20047;-69
2023/07/19 05:34:47;;;;;;;12.30;5.43;;;717.10;2432.00;;;;;;5033262;28;20063;-71
2023/07/19 05:37:13;;;;;;;9.93;4.78;;;717.30;2432.00;;;;;;5033283;28;20033;-73
2023/07/19 05:39:39;;;;;;;14.25;4.88;;;717.30;2432.00;;;;;;5026877;28;20033;-71
2023/07/19 05:42:05;;;;;;;10.45;4.22;;;717.40;2432.00;;;;;;5033756;28;20039;-71
2023/07/19 05:44:31;;;;;;;7.93;4.43;;;717.40;2432.00;;;;;;5032967;28;20036;-72
2023/07/19 05:46:56;;;;;;;8.57;4.40;;;717.50;2432.00;;;;;;5032932;28;20029;-71
2023/07/19 05:49:22;;;;;;;8.30;4.35;;;717.50;2432.00;;;;;;5033030;28;20491;-70
2023/07/19 05:51:48;;;;;;;6.78;4.25;;;717.60;2406.40;;;;;;5033002;28;20087;-73
2023/07/19 05:54:15;;;;;;;8.30;4.57;;;717.50;2406.40;;;;;;5033669;28;20538;-70
2023/07/19 05:56:41;;;;;;;5.25;3.50;;;717.70;2406.40;;;;;;5025382;28;20475;-71
2023/07/19 05:59:07;;;;;;;10.90;4.30;;;717.70;2304.00;;;;;;5033119;28;20035;-71
2023/07/19 06:01:33;;;;;;;8.25;3.72;;;742.40;2329.60;;;;;;5032532;28;20064;-71
2023/07/19 06:03:58;;;;;;;10.88;3.92;;;742.50;2304.00;;;;;;5032917;28;20378;-71
2023/07/19 06:06:25;;;;;;;10.05;3.92;;;742.50;2252.80;;;;;;5032881;28;20053;-71
2023/07/19 06:08:51;;;;;;;8.90;3.85;;;742.50;2227.20;;;;;;5014728;28;20030;-71
2023/07/19 06:11:16;;;;;;;11.07;3.78;;;742.60;2176.00;;;;;;5032541;28;20422;-70
2023/07/19 06:13:42;;;;;;;14.13;4.90;;;742.60;2176.00;;;;;;5029888;28;20041;-70
2023/07/19 06:16:08;;;;;;;6.32;3.83;;;742.60;2150.40;;;;;;5032257;28;20029;-71
2023/07/19 06:18:33;;;;;;;7.50;4.10;;;742.80;2150.40;;;;;;5032343;28;20523;-72
2023/07/19 06:20:59;;;;;;;8.73;3.97;;;742.80;2201.60;;;;;;5032616;28;20395;-70
2023/07/19 06:23:25;;;;;;;9.65;4.35;;;743.00;2176.00;;;;;;5032469;28;20021;-71
2023/07/19 06:25:51;;;;;;;11.65;4.25;;;743.00;2150.40;;;;;;5032542;28;20028;-71
2023/07/19 06:28:17;;;;;;;9.63;3.70;;;743.10;2150.40;;;;;;5032391;28;20460;-71
2023/07/19 06:30:43;;;;;;;16.60;4.57;;;743.10;2073.60;;;;;;5032932;28;20510;-72
2023/07/19 06:33:09;;;;;;;8.25;3.83;;;743.10;2099.20;;;;;;5032171;28;20123;-73
2023/07/19 06:35:35;;;;;;;7.25;3.33;;;743.10;2048.00;;;;;;5032372;28;20067;-71
2023/07/19 06:38:01;;;;;;;6.57;3.30;;;743.30;2022.40;;;;;;5032546;28;20045;-70
2023/07/19 06:40:26;;;;;;;5.60;3.20;;;743.30;2022.40;;;;;;5032255;28;20038;-71
2023/07/19 06:42:56;;;;;;;8.05;2.90;;;768.00;2022.40;;;;;;5031950;28;20578;-72
2023/07/19 06:45:21;;;;;;;9.02;3.33;;;768.10;1971.20;;;;;;5031769;28;20036;-70
2023/07/19 06:47:47;;;;;;;5.40;2.95;;;768.10;1920.00;;;;;;5032073;28;20021;-70
2023/07/19 06:50:13;;;;;;;11.13;3.03;;;768.20;1920.00;;;;;;5031846;28;20025;-70
2023/07/19 06:52:39;;;;;;;9.30;3.10;;;768.40;1843.20;;;;;;5032954;28;20022;-70
2023/07/19 06:55:05;;;;;;;12.73;3.25;;;768.40;1868.80;;;;;;5032231;28;20037;-71
2023/07/19 06:57:31;;;;;;;8.07;2.78;;;768.50;1843.20;;;;;;5032010;28;20030;-71
2023/07/19 06:59:58;;;;;;;9.98;3.28;;;768.60;1817.60;;;;;;5032041;28;20044;-71
2023/07/19 07:02:23;;;;;;;13.55;4.10;;;768.80;1792.00;;;;;;5013844;28;20045;-73
2023/07/19 07:04:52;;;;;;;11.07;2.88;;;768.90;1766.40;;;;;;5032354;28;20116;-72
2023/07/19 07:07:19;;;;;;;11.43;3.17;;;768.90;1740.80;;;;;;5028876;28;20026;-71
2023/07/19 07:09:48;;;;;;;11.82;3.78;;;768.90;1715.20;;;;;;5031955;28;20025;-72
2023/07/19 07:12:13;;;;;;;8.10;3.20;;;793.60;1740.80;;;;;;5013772;28;20045;-71
2023/07/19 07:14:40;;;;;;;12.27;3.67;;;793.70;1766.40;;;;;;5031948;28;20058;-72
2023/07/19 07:17:06;;;;;;;7.97;3.85;;;793.70;1740.80;;;;;;5034116;28;20040;-70
2023/07/19 07:19:32;;;;;;;11.23;3.17;;;793.90;1792.00;;;;;;5035521;28;20033;-72
2023/07/19 07:21:58;;;;;;;8.63;3.20;;;794.10;1740.80;;;;;;5035591;28;20056;-72
2023/07/19 07:24:24;;;;;;;8.63;3.10;;;794.10;1715.20;;;;;;5035686;28;20029;-70
2023/07/19 07:26:50;;;;;;;5.75;2.75;;;794.40;1689.60;;;;;;5016596;28;20038;-70
2023/07/19 07:29:16;;;;;;;6.38;2.53;;;794.40;1664.00;;;;;;5035506;28;20021;-71
2023/07/19 07:31:42;;;;;;;7.40;2.65;;;794.40;1664.00;;;;;;5035577;28;20026;-73
2023/07/19 07:34:08;;;;;;;8.27;3.20;;;794.40;1664.00;;;;;;5035868;28;20032;-74
2023/07/19 07:36:34;;;;;;;6.38;2.83;;;794.40;1664.00;;;;;;5017790;28;20022;-69
2023/07/19 07:39:00;;;;;;;11.50;2.70;;;819.20;1715.20;;;;;;5035511;28;20029;-75
2023/07/19 07:41:25;;;;;;;12.88;3.63;;;819.30;1612.80;;;;;;5036104;28;20140;-71
2023/07/19 07:43:51;;;;;;;8.15;3.10;;;819.30;1587.20;;;;;;5036666;28;20033;-74
2023/07/19 07:46:17;;;;;;;12.88;3.80;;;819.50;1587.20;;;;;;5017735;28;20042;-72
2023/07/19 07:48:42;;;;;;;11.45;3.20;;;819.60;1536.00;;;;;;5035279;28;20026;-71
2023/07/19 07:51:08;;;;;;;10.77;3.08;;;819.60;1561.60;;;;;;5035386;28;20028;-72
2023/07/19 07:53:34;;;;;;;5.72;2.85;;;819.70;1536.00;;;;;;5020490;28;20044;-70
2023/07/19 07:55:59;;;;;;;10.10;3.88;;;819.60;1536.00;;;;;;5020294;28;20021;-73
2023/07/19 07:58:25;;;;;;;11.27;3.72;;;819.60;1561.60;;;;;;5034917;28;20029;-70
2023/07/19 08:00:53;;;;;;;10.05;2.75;;;819.60;1561.60;;;;;;5035680;28;20478;-70
2023/07/19 08:03:19;;;;;;;9.00;3.35;;;819.60;1561.60;;;;;;5034886;28;20025;-72
2023/07/19 08:05:45;;;;;;;7.75;2.97;;;819.60;1587.20;;;;;;5034957;28;20376;-73
2023/07/19 08:08:11;;;;;;;8.55;2.95;;;819.60;1587.20;;;;;;5034901;28;20064;-71
2023/07/19 08:10:41;;;;;;;11.35;3.85;;;819.60;1612.80;;;;;;5034753;28;20021;-70
2023/07/19 08:13:07;;;;;;;11.35;3.15;;;819.60;1612.80;;;;;;5026494;28;20026;-74
2023/07/19 08:15:33;;;;;;;6.75;2.78;;;819.80;1587.20;;;;;;5034211;28;20040;-71
2023/07/19 08:18:00;;;;;;;8.43;3.08;;;819.80;1561.60;;;;;;5034581;28;20021;-70
2023/07/19 08:20:26;;;;;;;6.57;3.08;;;819.90;1587.20;;;;;;5030330;28;20116;-75
2023/07/19 08:22:52;;;;;;;7.55;3.47;;;819.90;1612.80;;;;;;5016828;28;20025;-73
2023/07/19 08:25:21;;;;;;;8.15;2.45;;;819.80;1612.80;;;;;;5034800;28;20021;-72
2023/07/19 08:27:47;;;;;;;12.93;3.60;;;820.00;1561.60;;;;;;5034368;28;20025;-74
2023/07/19 08:30:17;;;;;;;7.75;3.80;;;820.10;1561.60;;;;;;5034672;28;20032;-71
2023/07/19 08:32:44;;;;;;;8.20;3.35;;;820.10;1612.80;;;;;;5034433;28;20044;-71
2023/07/19 08:35:10;;;;;;;9.80;3.60;;;844.80;1612.80;;;;;;5034190;28;20055;-71
2023/07/19 08:37:35;;;;;;;16.15;4.38;;;844.80;1612.80;;;;;;5033124;28;20057;-71
2023/07/19 08:40:01;;;;;;;11.23;3.88;;;820.10;1587.20;;;;;;5034132;28;20037;-71
2023/07/19 08:42:27;;;;;;;8.43;3.22;;;820.10;1587.20;;;;;;5033922;28;20022;-72
2023/07/19 08:44:54;;;;;;;11.38;3.65;;;820.10;1587.20;;;;;;5034324;28;20041;-73
2023/07/19 08:47:20;;;;;;;12.73;4.18;;;820.10;1536.00;;;;;;5034134;28;20119;-71
2023/07/19 08:49:48;;;;;;;8.20;3.72;;;820.10;1561.60;;;;;;5034803;28;20574;-73
2023/07/19 08:52:15;;;;;;;8.70;4.28;;;844.80;1587.20;;;;;;5031791;28;21044;-72
2023/07/19 08:54:40;;;;;;;13.00;3.95;;;844.80;1561.60;;;;;;5034069;28;20022;-71
2023/07/19 08:57:06;;;;;;;9.90;3.40;;;844.80;1587.20;;;;;;5031808;28;20031;-73
2023/07/19 08:59:32;;;;;;;9.60;3.70;;;844.80;1561.60;;;;;;5033881;28;20025;-71
2023/07/19 09:01:57;;;;;;;12.05;3.00;;;844.80;1561.60;;;;;;5033960;28;20461;-72
2023/07/19 09:04:23;;;;;;;13.25;3.17;;;844.90;1536.00;;;;;;5033859;28;20129;-71
2023/07/19 09:06:49;;;;;;;9.15;3.65;;;844.90;1536.00;;;;;;5032223;28;20104;-71
2023/07/19 09:09:16;;;;;;;9.55;3.97;;;845.00;1536.00;;;;;;5021100;28;20533;-71
2023/07/19 09:11:49;;;;;;;9.23;3.72;;;845.10;1536.00;;;;;;5034057;28;20021;-72
2023/07/19 09:14:15;;;;;;;14.48;3.60;;;845.20;1536.00;;;;;;5015377;28;20049;-70
2023/07/19 09:16:40;;;;;;;6.47;3.00;;;845.10;1561.60;;;;;;5033645;28;20025;-71
2023/07/19 09:19:10;;;;;;;22.30;4.65;;;845.00;1536.00;;;;;;5015873;28;20053;-72
2023/07/19 09:21:38;;;;;;;9.88;4.57;;;845.00;1561.60;;;;;;5018603;28;20069;-71
2023/07/19 09:24:08;;;;;;;8.05;3.60;;;845.20;1536.00;;;;;;5033675;28;20547;-70
2023/07/19 09:26:47;;;;;;;13.45;3.50;;;845.30;1510.40;;;;;;5015632;28;20033;-69
2023/07/19 09:29:13;;;;;;;11.55;3.75;;;845.20;1536.00;;;;;;5015613;28;20025;-72
2023/07/19 09:32:02;;;;;;;9.55;4.10;;;845.20;1510.40;;;;;;5033495;28;20090;-75
2023/07/19 09:34:36;;;;;;;8.05;3.92;;;845.20;1510.40;;;;;;4970781;28;20089;-73
2023/07/19 09:37:02;;;;;;;10.55;3.88;;;845.40;1484.80;;;;;;4972601;28;20130;-70
2023/07/19 09:39:29;;;;;;;11.00;3.60;;;845.40;1484.80;;;;;;4972130;28;20078;-69
2023/07/19 09:41:57;;;;;;;12.32;3.70;;;845.60;1484.80;;;;;;4972390;28;20090;-74
2023/07/19 09:44:23;;;;;;;11.65;2.97;;;845.70;1433.60;;;;;;4972178;28;20113;-72
2023/07/19 09:46:49;;;;;;;7.43;3.20;;;845.50;1433.60;;;;;;4972377;28;20611;-71
2023/07/19 09:49:15;;;;;;;10.05;3.70;;;845.20;1484.80;;;;;;4972390;28;20039;-74
2023/07/19 09:51:42;;;;;;;6.22;3.42;;;845.40;1484.80;;;;;;4972364;28;20058;-74
2023/07/19 09:54:12;;;;;;;12.73;3.42;;;845.60;1459.20;;;;;;4972556;28;20033;-71
2023/07/19 09:56:40;;;;;;;6.03;3.05;;;845.60;1484.80;;;;;;4971270;28;20069;-70
2023/07/19 09:59:18;;;;;;;6.45;3.17;;;870.50;1459.20;;;;;;4972178;28;20062;-70
2023/07/19 10:01:44;;;;;;;5.38;3.10;;;870.70;1459.20;;;;;;4972022;28;20042;-73
2023/07/19 10:04:34;;;;;;;8.23;3.35;;;870.90;1433.60;;;;;;4967918;28;20086;-75
2023/07/19 10:07:19;;;;;;;13.27;4.22;;;870.90;1382.40;;;;;;4970774;28;20023;-70
2023/07/19 10:09:46;;;;;;;6.93;3.42;;;870.70;1382.40;;;;;;4970856;28;20388;-70
2023/07/19 10:12:18;;;;;;;7.95;3.05;;;870.50;1408.00;;;;;;5018942;28;20025;-70
2023/07/19 10:15:00;;;;;;;6.85;2.92;;;870.50;1459.20;;;;;;5030983;28;20099;-71
2023/07/19 10:17:29;;;;;;;6.68;2.90;;;870.70;1459.20;;;;;;5032440;28;20022;-72
2023/07/19 10:19:58;;;;;;;13.32;3.22;;;870.90;1433.60;;;;;;5032843;28;20068;-69
2023/07/19 10:22:48;;;;;;;11.00;2.92;;;871.10;1382.40;;;;;;5032760;28;20033;-69
2023/07/19 10:25:31;;;;;;;8.52;3.17;;;896.00;1433.60;;;;;;5027980;28;20026;-69
2023/07/19 10:28:01;;;;;;;11.10;3.83;;;896.10;1356.80;;;;;;5032096;28;20390;-70
2023/07/19 10:30:45;;;;;;;9.48;3.28;;;896.10;1356.80;;;;;;5030866;28;20025;-69
2023/07/19 10:33:11;;;;;;;10.40;3.05;;;896.30;1356.80;;;;;;5026290;28;20063;-71
2023/07/19 10:35:37;;;;;;;7.70;3.10;;;896.70;1356.80;;;;;;5032486;28;20052;-72
2023/07/19 10:38:03;;;;;;;10.10;3.05;;;896.80;1305.60;;;;;;5029760;28;20414;-73
2023/07/19 10:40:29;;;;;;;7.80;3.65;;;921.60;1331.20;;;;;;5032156;28;20065;-76
2023/07/19 10:42:54;;;;;;;9.60;3.67;;;921.60;1331.20;;;;;;5032168;28;20053;-75
2023/07/19 10:45:25;;;;;;;9.63;3.05;;;921.70;1331.20;;;;;;5031977;28;20124;-74
2023/07/19 10:47:50;;;;;;;8.45;2.63;;;921.80;1305.60;;;;;;5021646;28;20030;-71
2023/07/19 10:50:17;;;;;;;7.80;3.10;;;922.50;1254.40;;;;;;5031537;28;20088;-76
2023/07/19 10:52:46;;;;;;;8.35;2.95;;;947.50;1254.40;;;;;;5018250;28;20036;-70
2023/07/19 10:55:13;;;;;;;8.00;3.13;;;947.80;1228.80;;;;;;5036331;28;20033;-71
2023/07/19 10:57:39;;;;;;;6.45;2.97;;;948.10;1152.00;;;;;;5036313;28;20040;-70
2023/07/19 11:00:12;;;;;;;8.25;4.90;;;973.10;1152.00;;;;;;5032776;28;20033;-70
2023/07/19 11:02:42;;;;;;;6.93;2.83;;;973.20;1126.40;;;;;;5036385;28;20030;-71
2023/07/19 11:05:08;;;;;;;9.82;3.38;;;973.20;1126.40;;;;;;5036391;28;20029;-70
2023/07/19 11:07:34;;;;;;;8.23;2.92;;;973.50;1126.40;;;;;;5036226;28;20116;-71
2023/07/19 11:10:01;;;;;;;8.90;3.00;;;973.70;1100.80;;;;;;5035858;28;20483;-72
2023/07/19 11:12:30;;;;;;;8.43;3.05;;;973.30;1075.20;;;;;;5035548;28;20036;-71
2023/07/19 11:14:58;;;;;;;10.05;3.13;;;973.60;1100.80;;;;;;5035717;28;20450;-73
2023/07/19 11:17:30;;;;;;;6.70;2.85;;;998.40;1100.80;;;;;;5035572;28;20026;-70
2023/07/19 11:19:58;;;;;;;8.00;3.03;;;998.70;1126.40;;;;;;5036135;28;20033;-70
2023/07/19 11:22:25;;;;;;;7.07;3.13;;;998.50;1100.80;;;;;;5035714;28;20052;-70
2023/07/19 11:24:53;;;;;;;8.13;2.83;;;998.40;1152.00;;;;;;5035755;28;20026;-71
2023/07/19 11:27:38;;;;;;;9.45;3.47;;;998.40;1100.80;;;;;;5035447;28;20067;-71
2023/07/19 11:30:06;;;;;;;14.05;3.25;;;998.50;1126.40;;;;;;5035751;28;20493;-71
2023/07/19 11:32:32;;;;;;;11.90;3.10;;;998.70;1100.80;;;;;;5035602;28;20021;-70
2023/07/19 11:35:00;;;;;;;7.90;3.20;;;998.90;1075.20;;;;;;5018166;28;20064;-73
2023/07/19 11:37:33;;;;;;;12.40;3.47;;;999.00;1075.20;;;;;;5012666;28;20022;-74
2023/07/19 11:40:05;;;;;;;10.93;3.70;;;999.10;1075.20;;;;;;5035434;28;20033;-70
2023/07/19 11:42:47;;;;;;;9.75;3.30;;;973.70;1075.20;;;;;;5032074;28;20022;-70
2023/07/19 11:45:18;;;;;;;9.23;3.30;;;973.70;1075.20;;;;;;5030621;28;20045;-71
2023/07/19 11:47:45;;;;;;;9.27;3.10;;;973.60;1100.80;;;;;;5035305;28;20022;-75
2023/07/19 11:50:12;;;;;;;10.15;3.53;;;973.70;1075.20;;;;;;5035655;28;20349;-75
2023/07/19 11:52:51;;;;;;;10.55;3.40;;;973.30;1075.20;;;;;;5035741;28;20032;-70
2023/07/19 11:55:18;;;;;;;8.05;3.30;;;973.70;1049.60;;;;;;5035879;28;20068;-68
2023/07/19 11:57:48;;;;;;;8.18;3.72;;;998.70;1075.20;;;;;;5017593;28;20368;-72
2023/07/19 12:00:15;;;;;;;10.13;3.85;;;973.70;1075.20;;;;;;5035008;28;20467;-71
2023/07/19 12:02:44;;;;;;;10.32;3.53;;;973.70;1049.60;;;;;;5034623;28;20033;-71
2023/07/19 12:05:11;;;;;;;9.93;2.90;;;998.80;1049.60;;;;;;5034697;28;20036;-71
2023/07/19 12:07:36;;;;;;;7.65;2.50;;;998.70;1075.20;;;;;;5035085;28;20079;-72
2023/07/19 12:10:04;;;;;;;5.93;2.92;;;998.90;1075.20;;;;;;5035043;28;20471;-70